sensor_id;sensor_type;location;lat;lon;timestamp;P1;durP1;ratioP1;P2;durP2;ratioP2
67278;SDS011;54193;53.746;10.058;2022-11-25T00:00:20;86.60;;;16.55;;
67278;SDS011;54193;53.746;10.058;2022-11-25T00:03:06;57.87;;;13.73;;
67278;SDS011;54193;53.746;10.058;2022-11-25T00:05:52;85.43;;;15.00;;
67278;SDS011;54193;53.746;10.058;2022-11-25T00:08:37;57.22;;;12.60;;
67278;SDS011;54193;53.746;10.058;2022-11-25T00:11:24;61.78;;;14.10;;
67278;SDS011;54193;53.746;10.058;2022-11-25T00:14:11;40.13;;;7.75;;
67278;SDS011;54193;53.746;10.058;2022-11-25T00:16:58;59.57;;;15.17;;
67278;SDS011;54193;53.746;10.058;2022-11-25T00:19:44;24.77;;;7.63;;
67278;SDS011;54193;53.746;10.058;2022-11-25T00:22:30;34.05;;;10.88;;
67278;SDS011;54193;53.746;10.058;2022-11-25T00:25:15;60.80;;;10.18;;
67278;SDS011;54193;53.746;10.058;2022-11-25T00:28:01;65.35;;;11.32;;
67278;SDS011;54193;53.746;10.058;2022-11-25T00:30:46;19.43;;;6.87;;
67278;SDS011;54193;53.746;10.058;2022-11-25T00:33:32;46.67;;;12.50;;
67278;SDS011;54193;53.746;10.058;2022-11-25T00:36:19;30.48;;;8.65;;
67278;SDS011;54193;53.746;10.058;2022-11-25T00:39:05;46.95;;;11.75;;
67278;SDS011;54193;53.746;10.058;2022-11-25T00:41:54;65.68;;;15.82;;
67278;SDS011;54193;53.746;10.058;2022-11-25T00:44:58;66.53;;;15.30;;
67278;SDS011;54193;53.746;10.058;2022-11-25T00:47:44;68.72;;;14.50;;
67278;SDS011;54193;53.746;10.058;2022-11-25T00:50:30;56.25;;;14.05;;
67278;SDS011;54193;53.746;10.058;2022-11-25T00:53:15;69.65;;;15.15;;
67278;SDS011;54193;53.746;10.058;2022-11-25T00:56:01;54.97;;;13.30;;
67278;SDS011;54193;53.746;10.058;2022-11-25T00:58:58;35.57;;;6.27;;
67278;SDS011;54193;53.746;10.058;2022-11-25T01:01:44;84.57;;;15.82;;
67278;SDS011;54193;53.746;10.058;2022-11-25T01:04:30;50.90;;;11.85;;
67278;SDS011;54193;53.746;10.058;2022-11-25T01:07:15;39.67;;;8.35;;
67278;SDS011;54193;53.746;10.058;2022-11-25T01:10:02;96.90;;;15.95;;
67278;SDS011;54193;53.746;10.058;2022-11-25T01:12:47;62.80;;;13.10;;
67278;SDS011;54193;53.746;10.058;2022-11-25T01:15:35;128.15;;;19.33;;
67278;SDS011;54193;53.746;10.058;2022-11-25T01:18:21;134.40;;;24.08;;
67278;SDS011;54193;53.746;10.058;2022-11-25T01:21:07;35.75;;;7.68;;
67278;SDS011;54193;53.746;10.058;2022-11-25T01:23:54;68.80;;;11.95;;
67278;SDS011;54193;53.746;10.058;2022-11-25T01:26:40;52.03;;;12.60;;
67278;SDS011;54193;53.746;10.058;2022-11-25T01:29:26;98.70;;;17.63;;
67278;SDS011;54193;53.746;10.058;2022-11-25T01:32:12;98.85;;;19.70;;
67278;SDS011;54193;53.746;10.058;2022-11-25T01:34:57;93.05;;;18.38;;
67278;SDS011;54193;53.746;10.058;2022-11-25T01:37:43;88.18;;;15.02;;
67278;SDS011;54193;53.746;10.058;2022-11-25T01:40:29;76.87;;;13.73;;
67278;SDS011;54193;53.746;10.058;2022-11-25T01:43:14;72.63;;;14.10;;
67278;SDS011;54193;53.746;10.058;2022-11-25T01:46:18;116.45;;;18.25;;
67278;SDS011;54193;53.746;10.058;2022-11-25T01:49:11;89.03;;;17.55;;
67278;SDS011;54193;53.746;10.058;2022-11-25T01:52:25;83.82;;;14.20;;
67278;SDS011;54193;53.746;10.058;2022-11-25T01:55:15;84.70;;;15.37;;
67278;SDS011;54193;53.746;10.058;2022-11-25T01:58:09;111.90;;;18.80;;
67278;SDS011;54193;53.746;10.058;2022-11-25T02:01:11;74.75;;;13.70;;
67278;SDS011;54193;53.746;10.058;2022-11-25T02:03:57;103.57;;;19.00;;
67278;SDS011;54193;53.746;10.058;2022-11-25T02:06:47;98.28;;;17.67;;
67278;SDS011;54193;53.746;10.058;2022-11-25T02:09:38;87.37;;;18.50;;
67278;SDS011;54193;53.746;10.058;2022-11-25T02:12:27;90.53;;;19.08;;
67278;SDS011;54193;53.746;10.058;2022-11-25T02:15:13;101.70;;;19.08;;
67278;SDS011;54193;53.746;10.058;2022-11-25T02:18:00;102.28;;;19.70;;
67278;SDS011;54193;53.746;10.058;2022-11-25T02:20:46;104.60;;;22.33;;
67278;SDS011;54193;53.746;10.058;2022-11-25T02:26:24;121.75;;;21.48;;
67278;SDS011;54193;53.746;10.058;2022-11-25T02:29:09;104.97;;;18.60;;
67278;SDS011;54193;53.746;10.058;2022-11-25T02:31:56;114.38;;;20.83;;
67278;SDS011;54193;53.746;10.058;2022-11-25T02:34:45;110.35;;;20.52;;
67278;SDS011;54193;53.746;10.058;2022-11-25T02:37:32;101.97;;;20.40;;
67278;SDS011;54193;53.746;10.058;2022-11-25T02:40:17;100.30;;;19.67;;
67278;SDS011;54193;53.746;10.058;2022-11-25T02:43:03;98.55;;;19.92;;
67278;SDS011;54193;53.746;10.058;2022-11-25T02:48:43;105.13;;;20.75;;
67278;SDS011;54193;53.746;10.058;2022-11-25T02:51:29;95.00;;;18.03;;
67278;SDS011;54193;53.746;10.058;2022-11-25T02:54:16;98.40;;;19.45;;
67278;SDS011;54193;53.746;10.058;2022-11-25T02:57:01;99.88;;;19.08;;
67278;SDS011;54193;53.746;10.058;2022-11-25T02:59:47;102.78;;;20.42;;
67278;SDS011;54193;53.746;10.058;2022-11-25T03:02:33;117.35;;;21.75;;
67278;SDS011;54193;53.746;10.058;2022-11-25T03:05:19;38.00;;;9.57;;
67278;SDS011;54193;53.746;10.058;2022-11-25T03:08:06;65.15;;;16.85;;
67278;SDS011;54193;53.746;10.058;2022-11-25T03:10:53;53.33;;;12.65;;
67278;SDS011;54193;53.746;10.058;2022-11-25T03:13:38;107.70;;;19.90;;
67278;SDS011;54193;53.746;10.058;2022-11-25T03:16:24;44.80;;;8.57;;
67278;SDS011;54193;53.746;10.058;2022-11-25T03:19:09;77.50;;;16.17;;
67278;SDS011;54193;53.746;10.058;2022-11-25T03:21:55;108.30;;;20.58;;
67278;SDS011;54193;53.746;10.058;2022-11-25T03:24:41;84.47;;;18.05;;
67278;SDS011;54193;53.746;10.058;2022-11-25T03:27:26;91.93;;;17.17;;
67278;SDS011;54193;53.746;10.058;2022-11-25T03:30:14;58.03;;;13.07;;
67278;SDS011;54193;53.746;10.058;2022-11-25T03:33:01;86.57;;;19.17;;
67278;SDS011;54193;53.746;10.058;2022-11-25T03:35:46;101.53;;;19.27;;
67278;SDS011;54193;53.746;10.058;2022-11-25T03:38:32;39.60;;;12.20;;
67278;SDS011;54193;53.746;10.058;2022-11-25T03:41:18;99.18;;;18.92;;
67278;SDS011;54193;53.746;10.058;2022-11-25T03:44:03;93.00;;;18.00;;
67278;SDS011;54193;53.746;10.058;2022-11-25T03:46:49;79.17;;;15.50;;
67278;SDS011;54193;53.746;10.058;2022-11-25T03:49:35;49.45;;;10.75;;
67278;SDS011;54193;53.746;10.058;2022-11-25T03:52:20;14.15;;;4.38;;
67278;SDS011;54193;53.746;10.058;2022-11-25T03:55:06;36.28;;;10.43;;
67278;SDS011;54193;53.746;10.058;2022-11-25T03:57:52;42.67;;;13.77;;
67278;SDS011;54193;53.746;10.058;2022-11-25T04:00:38;67.23;;;15.80;;
67278;SDS011;54193;53.746;10.058;2022-11-25T04:03:24;85.40;;;18.27;;
67278;SDS011;54193;53.746;10.058;2022-11-25T04:06:09;73.43;;;15.13;;
67278;SDS011;54193;53.746;10.058;2022-11-25T04:08:55;76.22;;;16.50;;
67278;SDS011;54193;53.746;10.058;2022-11-25T04:11:40;76.70;;;16.83;;
67278;SDS011;54193;53.746;10.058;2022-11-25T04:14:44;51.80;;;12.40;;
67278;SDS011;54193;53.746;10.058;2022-11-25T04:17:30;77.97;;;15.82;;
67278;SDS011;54193;53.746;10.058;2022-11-25T04:20:16;69.75;;;16.05;;
67278;SDS011;54193;53.746;10.058;2022-11-25T04:23:01;70.93;;;14.82;;
67278;SDS011;54193;53.746;10.058;2022-11-25T04:25:50;36.35;;;12.02;;
67278;SDS011;54193;53.746;10.058;2022-11-25T04:28:36;27.43;;;9.30;;
67278;SDS011;54193;53.746;10.058;2022-11-25T04:31:21;12.65;;;5.78;;
67278;SDS011;54193;53.746;10.058;2022-11-25T04:34:07;33.42;;;9.45;;
67278;SDS011;54193;53.746;10.058;2022-11-25T04:36:53;18.80;;;6.75;;
67278;SDS011;54193;53.746;10.058;2022-11-25T04:39:38;33.90;;;13.07;;
67278;SDS011;54193;53.746;10.058;2022-11-25T04:42:24;46.17;;;11.07;;
67278;SDS011;54193;53.746;10.058;2022-11-25T04:45:20;21.83;;;8.80;;
67278;SDS011;54193;53.746;10.058;2022-11-25T04:48:06;21.30;;;9.32;;
67278;SDS011;54193;53.746;10.058;2022-11-25T04:50:51;36.90;;;9.85;;
67278;SDS011;54193;53.746;10.058;2022-11-25T04:53:37;19.27;;;7.45;;
67278;SDS011;54193;53.746;10.058;2022-11-25T04:56:23;29.77;;;9.13;;
67278;SDS011;54193;53.746;10.058;2022-11-25T04:59:09;39.25;;;10.07;;
67278;SDS011;54193;53.746;10.058;2022-11-25T05:05:02;19.05;;;7.70;;
67278;SDS011;54193;53.746;10.058;2022-11-25T05:07:48;18.08;;;6.80;;
67278;SDS011;54193;53.746;10.058;2022-11-25T05:10:34;28.43;;;8.67;;
67278;SDS011;54193;53.746;10.058;2022-11-25T05:13:19;22.50;;;7.30;;
67278;SDS011;54193;53.746;10.058;2022-11-25T05:16:05;19.55;;;7.32;;
67278;SDS011;54193;53.746;10.058;2022-11-25T05:18:51;33.10;;;8.18;;
67278;SDS011;54193;53.746;10.058;2022-11-25T05:21:36;22.75;;;6.35;;
67278;SDS011;54193;53.746;10.058;2022-11-25T05:24:22;23.60;;;9.57;;
67278;SDS011;54193;53.746;10.058;2022-11-25T05:27:09;31.65;;;9.68;;
67278;SDS011;54193;53.746;10.058;2022-11-25T05:29:55;27.08;;;8.93;;
67278;SDS011;54193;53.746;10.058;2022-11-25T05:32:41;33.63;;;10.25;;
67278;SDS011;54193;53.746;10.058;2022-11-25T05:35:28;36.03;;;13.23;;
67278;SDS011;54193;53.746;10.058;2022-11-25T05:38:14;24.80;;;10.27;;
67278;SDS011;54193;53.746;10.058;2022-11-25T05:41:00;37.47;;;12.27;;
67278;SDS011;54193;53.746;10.058;2022-11-25T05:43:50;33.10;;;13.40;;
67278;SDS011;54193;53.746;10.058;2022-11-25T05:46:36;37.05;;;11.43;;
67278;SDS011;54193;53.746;10.058;2022-11-25T05:49:21;11.65;;;4.38;;
67278;SDS011;54193;53.746;10.058;2022-11-25T05:52:07;20.83;;;7.37;;
67278;SDS011;54193;53.746;10.058;2022-11-25T05:54:53;25.20;;;10.43;;
67278;SDS011;54193;53.746;10.058;2022-11-25T05:57:38;25.67;;;9.73;;
67278;SDS011;54193;53.746;10.058;2022-11-25T06:00:24;34.83;;;9.57;;
67278;SDS011;54193;53.746;10.058;2022-11-25T06:03:11;30.08;;;8.40;;
67278;SDS011;54193;53.746;10.058;2022-11-25T06:05:57;16.27;;;6.73;;
67278;SDS011;54193;53.746;10.058;2022-11-25T06:08:43;22.35;;;8.70;;
67278;SDS011;54193;53.746;10.058;2022-11-25T06:11:29;24.80;;;7.20;;
67278;SDS011;54193;53.746;10.058;2022-11-25T06:14:14;16.73;;;6.45;;
67278;SDS011;54193;53.746;10.058;2022-11-25T06:17:01;22.98;;;8.32;;
67278;SDS011;54193;53.746;10.058;2022-11-25T06:19:48;25.00;;;7.80;;
67278;SDS011;54193;53.746;10.058;2022-11-25T06:22:34;16.77;;;5.75;;
67278;SDS011;54193;53.746;10.058;2022-11-25T06:25:19;15.95;;;5.97;;
67278;SDS011;54193;53.746;10.058;2022-11-25T06:28:05;17.35;;;5.40;;
67278;SDS011;54193;53.746;10.058;2022-11-25T06:30:51;20.85;;;7.28;;
67278;SDS011;54193;53.746;10.058;2022-11-25T06:33:36;13.87;;;5.53;;
67278;SDS011;54193;53.746;10.058;2022-11-25T06:36:22;18.70;;;7.30;;
67278;SDS011;54193;53.746;10.058;2022-11-25T06:39:07;21.52;;;6.50;;
67278;SDS011;54193;53.746;10.058;2022-11-25T06:41:53;23.23;;;8.02;;
67278;SDS011;54193;53.746;10.058;2022-11-25T06:44:39;19.05;;;5.53;;
67278;SDS011;54193;53.746;10.058;2022-11-25T06:47:24;28.40;;;8.07;;
67278;SDS011;54193;53.746;10.058;2022-11-25T06:50:10;13.30;;;5.53;;
67278;SDS011;54193;53.746;10.058;2022-11-25T06:52:56;30.38;;;7.80;;
67278;SDS011;54193;53.746;10.058;2022-11-25T06:55:41;16.75;;;5.65;;
67278;SDS011;54193;53.746;10.058;2022-11-25T06:58:27;28.95;;;9.00;;
67278;SDS011;54193;53.746;10.058;2022-11-25T07:01:25;23.53;;;7.67;;
67278;SDS011;54193;53.746;10.058;2022-11-25T07:04:12;30.13;;;11.13;;
67278;SDS011;54193;53.746;10.058;2022-11-25T07:06:58;27.88;;;10.70;;
67278;SDS011;54193;53.746;10.058;2022-11-25T07:09:44;19.95;;;7.75;;
67278;SDS011;54193;53.746;10.058;2022-11-25T07:12:29;29.25;;;8.10;;
67278;SDS011;54193;53.746;10.058;2022-11-25T07:15:15;21.57;;;8.13;;
67278;SDS011;54193;53.746;10.058;2022-11-25T07:18:00;16.95;;;5.45;;
67278;SDS011;54193;53.746;10.058;2022-11-25T07:20:46;14.25;;;5.32;;
67278;SDS011;54193;53.746;10.058;2022-11-25T07:23:32;22.38;;;6.63;;
67278;SDS011;54193;53.746;10.058;2022-11-25T07:26:22;37.00;;;14.10;;
67278;SDS011;54193;53.746;10.058;2022-11-25T07:29:10;15.30;;;5.70;;
67278;SDS011;54193;53.746;10.058;2022-11-25T07:31:57;13.88;;;5.25;;
67278;SDS011;54193;53.746;10.058;2022-11-25T07:34:43;24.00;;;9.90;;
67278;SDS011;54193;53.746;10.058;2022-11-25T07:37:29;16.70;;;6.43;;
67278;SDS011;54193;53.746;10.058;2022-11-25T07:40:15;29.50;;;8.45;;
67278;SDS011;54193;53.746;10.058;2022-11-25T07:43:00;16.83;;;5.60;;
67278;SDS011;54193;53.746;10.058;2022-11-25T07:45:46;14.88;;;4.50;;
67278;SDS011;54193;53.746;10.058;2022-11-25T07:48:31;14.38;;;4.60;;
67278;SDS011;54193;53.746;10.058;2022-11-25T07:51:21;14.48;;;5.07;;
67278;SDS011;54193;53.746;10.058;2022-11-25T07:54:10;24.10;;;7.65;;
67278;SDS011;54193;53.746;10.058;2022-11-25T07:56:57;10.67;;;4.07;;
67278;SDS011;54193;53.746;10.058;2022-11-25T07:59:43;19.15;;;5.68;;
67278;SDS011;54193;53.746;10.058;2022-11-25T08:02:28;17.20;;;6.88;;
67278;SDS011;54193;53.746;10.058;2022-11-25T08:05:14;18.55;;;7.05;;
67278;SDS011;54193;53.746;10.058;2022-11-25T08:08:00;18.73;;;5.03;;
67278;SDS011;54193;53.746;10.058;2022-11-25T08:10:45;13.97;;;4.50;;
67278;SDS011;54193;53.746;10.058;2022-11-25T08:13:31;22.67;;;8.55;;
67278;SDS011;54193;53.746;10.058;2022-11-25T08:16:17;17.70;;;5.60;;
67278;SDS011;54193;53.746;10.058;2022-11-25T08:19:05;9.98;;;4.63;;
67278;SDS011;54193;53.746;10.058;2022-11-25T08:21:54;10.07;;;3.97;;
67278;SDS011;54193;53.746;10.058;2022-11-25T08:24:39;11.70;;;4.03;;
67278;SDS011;54193;53.746;10.058;2022-11-25T08:27:25;18.10;;;6.28;;
67278;SDS011;54193;53.746;10.058;2022-11-25T08:30:11;15.35;;;6.88;;
67278;SDS011;54193;53.746;10.058;2022-11-25T08:32:56;10.73;;;4.43;;
67278;SDS011;54193;53.746;10.058;2022-11-25T08:35:43;20.48;;;5.50;;
67278;SDS011;54193;53.746;10.058;2022-11-25T08:38:28;23.77;;;5.90;;
67278;SDS011;54193;53.746;10.058;2022-11-25T08:41:16;10.32;;;4.55;;
67278;SDS011;54193;53.746;10.058;2022-11-25T08:44:07;13.90;;;4.95;;
67278;SDS011;54193;53.746;10.058;2022-11-25T08:46:54;12.27;;;5.32;;
67278;SDS011;54193;53.746;10.058;2022-11-25T08:49:39;11.68;;;4.20;;
67278;SDS011;54193;53.746;10.058;2022-11-25T08:52:25;20.17;;;6.63;;
67278;SDS011;54193;53.746;10.058;2022-11-25T08:55:13;16.77;;;6.20;;
67278;SDS011;54193;53.746;10.058;2022-11-25T08:57:58;12.10;;;5.07;;
67278;SDS011;54193;53.746;10.058;2022-11-25T09:00:44;17.00;;;5.25;;
67278;SDS011;54193;53.746;10.058;2022-11-25T09:03:33;10.38;;;3.38;;
67278;SDS011;54193;53.746;10.058;2022-11-25T09:06:21;18.33;;;6.20;;
67278;SDS011;54193;53.746;10.058;2022-11-25T09:09:07;9.77;;;3.35;;
67278;SDS011;54193;53.746;10.058;2022-11-25T09:11:53;13.98;;;5.30;;
67278;SDS011;54193;53.746;10.058;2022-11-25T09:14:38;18.48;;;5.90;;
67278;SDS011;54193;53.746;10.058;2022-11-25T09:17:24;9.68;;;4.22;;
67278;SDS011;54193;53.746;10.058;2022-11-25T09:20:11;14.65;;;4.65;;
67278;SDS011;54193;53.746;10.058;2022-11-25T09:22:58;19.95;;;5.25;;
67278;SDS011;54193;53.746;10.058;2022-11-25T09:25:54;17.92;;;6.97;;
67278;SDS011;54193;53.746;10.058;2022-11-25T09:28:42;9.63;;;3.83;;
67278;SDS011;54193;53.746;10.058;2022-11-25T09:31:28;12.88;;;4.55;;
67278;SDS011;54193;53.746;10.058;2022-11-25T09:34:13;19.30;;;6.80;;
67278;SDS011;54193;53.746;10.058;2022-11-25T09:36:59;12.55;;;4.45;;
67278;SDS011;54193;53.746;10.058;2022-11-25T09:39:44;10.23;;;3.78;;
67278;SDS011;54193;53.746;10.058;2022-11-25T09:42:40;14.27;;;3.65;;
67278;SDS011;54193;53.746;10.058;2022-11-25T09:55:49;13.52;;;5.82;;
67278;SDS011;54193;53.746;10.058;2022-11-25T09:58:40;17.17;;;5.60;;
67278;SDS011;54193;53.746;10.058;2022-11-25T10:01:33;21.48;;;6.68;;
67278;SDS011;54193;53.746;10.058;2022-11-25T10:04:32;10.90;;;4.13;;
67278;SDS011;54193;53.746;10.058;2022-11-25T10:07:29;16.48;;;5.68;;
67278;SDS011;54193;53.746;10.058;2022-11-25T10:10:30;18.20;;;6.45;;
67278;SDS011;54193;53.746;10.058;2022-11-25T10:22:21;23.45;;;6.65;;
67278;SDS011;54193;53.746;10.058;2022-11-25T10:25:17;18.60;;;6.40;;
67278;SDS011;54193;53.746;10.058;2022-11-25T10:31:16;13.90;;;4.55;;
67278;SDS011;54193;53.746;10.058;2022-11-25T10:34:09;14.02;;;5.38;;
67278;SDS011;54193;53.746;10.058;2022-11-25T10:37:05;22.80;;;7.05;;
67278;SDS011;54193;53.746;10.058;2022-11-25T10:39:58;11.93;;;4.15;;
67278;SDS011;54193;53.746;10.058;2022-11-25T10:42:44;23.15;;;6.38;;
67278;SDS011;54193;53.746;10.058;2022-11-25T10:45:30;24.58;;;7.93;;
67278;SDS011;54193;53.746;10.058;2022-11-25T10:51:23;22.80;;;7.68;;
67278;SDS011;54193;53.746;10.058;2022-11-25T10:54:31;21.27;;;7.22;;
67278;SDS011;54193;53.746;10.058;2022-11-25T10:57:17;29.67;;;10.00;;
67278;SDS011;54193;53.746;10.058;2022-11-25T11:00:06;15.65;;;5.25;;
67278;SDS011;54193;53.746;10.058;2022-11-25T11:06:00;28.33;;;7.75;;
67278;SDS011;54193;53.746;10.058;2022-11-25T11:08:46;22.73;;;6.57;;
67278;SDS011;54193;53.746;10.058;2022-11-25T11:11:31;18.33;;;7.05;;
67278;SDS011;54193;53.746;10.058;2022-11-25T11:14:18;26.92;;;8.15;;
67278;SDS011;54193;53.746;10.058;2022-11-25T11:17:05;20.17;;;7.55;;
67278;SDS011;54193;53.746;10.058;2022-11-25T11:20:12;14.70;;;5.13;;
67278;SDS011;54193;53.746;10.058;2022-11-25T11:23:06;18.45;;;5.95;;
67278;SDS011;54193;53.746;10.058;2022-11-25T11:26:00;18.92;;;6.57;;
67278;SDS011;54193;53.746;10.058;2022-11-25T11:28:46;13.82;;;4.63;;
67278;SDS011;54193;53.746;10.058;2022-11-25T11:31:33;20.98;;;7.05;;
67278;SDS011;54193;53.746;10.058;2022-11-25T11:35:05;20.67;;;7.93;;
67278;SDS011;54193;53.746;10.058;2022-11-25T11:40:39;21.10;;;7.65;;
67278;SDS011;54193;53.746;10.058;2022-11-25T11:46:36;10.98;;;3.83;;
67278;SDS011;54193;53.746;10.058;2022-11-25T11:55:24;20.10;;;6.03;;
67278;SDS011;54193;53.746;10.058;2022-11-25T11:58:38;20.15;;;6.88;;
67278;SDS011;54193;53.746;10.058;2022-11-25T12:07:31;24.90;;;7.97;;
67278;SDS011;54193;53.746;10.058;2022-11-25T12:10:26;22.25;;;8.00;;
67278;SDS011;54193;53.746;10.058;2022-11-25T12:19:39;22.77;;;8.60;;
67278;SDS011;54193;53.746;10.058;2022-11-25T12:22:36;27.20;;;8.90;;
67278;SDS011;54193;53.746;10.058;2022-11-25T12:25:30;22.25;;;8.07;;
67278;SDS011;54193;53.746;10.058;2022-11-25T12:28:42;24.88;;;8.27;;
67278;SDS011;54193;53.746;10.058;2022-11-25T12:32:15;23.83;;;6.35;;
67278;SDS011;54193;53.746;10.058;2022-11-25T12:34:54;22.80;;;7.30;;
67278;SDS011;54193;53.746;10.058;2022-11-25T12:44:11;23.23;;;8.82;;
67278;SDS011;54193;53.746;10.058;2022-11-25T12:46:59;21.30;;;7.53;;
67278;SDS011;54193;53.746;10.058;2022-11-25T12:49:47;28.63;;;8.30;;
67278;SDS011;54193;53.746;10.058;2022-11-25T12:55:44;24.27;;;7.90;;
67278;SDS011;54193;53.746;10.058;2022-11-25T12:58:40;23.20;;;8.27;;
67278;SDS011;54193;53.746;10.058;2022-11-25T13:01:40;27.50;;;6.70;;
67278;SDS011;54193;53.746;10.058;2022-11-25T13:04:52;23.60;;;7.95;;
67278;SDS011;54193;53.746;10.058;2022-11-25T13:08:03;22.35;;;8.48;;
67278;SDS011;54193;53.746;10.058;2022-11-25T13:11:06;23.38;;;8.85;;
67278;SDS011;54193;53.746;10.058;2022-11-25T13:13:58;24.93;;;9.37;;
67278;SDS011;54193;53.746;10.058;2022-11-25T13:16:49;26.13;;;9.13;;
67278;SDS011;54193;53.746;10.058;2022-11-25T13:19:36;29.77;;;8.82;;
67278;SDS011;54193;53.746;10.058;2022-11-25T13:25:20;33.25;;;9.45;;
67278;SDS011;54193;53.746;10.058;2022-11-25T13:34:26;27.20;;;9.50;;
67278;SDS011;54193;53.746;10.058;2022-11-25T13:40:26;26.83;;;9.30;;
67278;SDS011;54193;53.746;10.058;2022-11-25T13:43:19;24.27;;;9.63;;
67278;SDS011;54193;53.746;10.058;2022-11-25T13:46:06;22.25;;;8.77;;
67278;SDS011;54193;53.746;10.058;2022-11-25T13:48:51;25.15;;;8.82;;
67278;SDS011;54193;53.746;10.058;2022-11-25T13:51:37;23.42;;;8.82;;
67278;SDS011;54193;53.746;10.058;2022-11-25T13:54:43;25.90;;;9.50;;
67278;SDS011;54193;53.746;10.058;2022-11-25T13:57:33;26.57;;;8.77;;
67278;SDS011;54193;53.746;10.058;2022-11-25T14:06:05;22.40;;;8.98;;
67278;SDS011;54193;53.746;10.058;2022-11-25T14:11:54;26.23;;;9.85;;
67278;SDS011;54193;53.746;10.058;2022-11-25T14:21:05;21.23;;;9.07;;
67278;SDS011;54193;53.746;10.058;2022-11-25T14:24:10;22.70;;;8.40;;
67278;SDS011;54193;53.746;10.058;2022-11-25T14:27:16;24.55;;;8.27;;
67278;SDS011;54193;53.746;10.058;2022-11-25T14:30:06;22.75;;;8.88;;
67278;SDS011;54193;53.746;10.058;2022-11-25T14:33:03;24.70;;;8.93;;
67278;SDS011;54193;53.746;10.058;2022-11-25T14:35:54;26.63;;;9.27;;
67278;SDS011;54193;53.746;10.058;2022-11-25T14:38:51;24.30;;;8.87;;
67278;SDS011;54193;53.746;10.058;2022-11-25T14:41:41;24.67;;;9.13;;
67278;SDS011;54193;53.746;10.058;2022-11-25T14:44:37;29.88;;;9.93;;
67278;SDS011;54193;53.746;10.058;2022-11-25T14:47:31;26.02;;;9.20;;
67278;SDS011;54193;53.746;10.058;2022-11-25T14:50:17;22.05;;;9.40;;
67278;SDS011;54193;53.746;10.058;2022-11-25T14:53:07;28.43;;;9.73;;
67278;SDS011;54193;53.746;10.058;2022-11-25T14:55:54;24.25;;;10.18;;
67278;SDS011;54193;53.746;10.058;2022-11-25T14:58:45;25.20;;;10.05;;
67278;SDS011;54193;53.746;10.058;2022-11-25T15:01:33;24.63;;;10.20;;
67278;SDS011;54193;53.746;10.058;2022-11-25T15:04:21;30.35;;;11.65;;
67278;SDS011;54193;53.746;10.058;2022-11-25T15:07:15;26.00;;;10.50;;
67278;SDS011;54193;53.746;10.058;2022-11-25T15:10:04;25.48;;;10.20;;
67278;SDS011;54193;53.746;10.058;2022-11-25T15:12:51;27.48;;;10.50;;
67278;SDS011;54193;53.746;10.058;2022-11-25T15:15:36;30.70;;;10.98;;
67278;SDS011;54193;53.746;10.058;2022-11-25T15:18:22;26.20;;;10.82;;
67278;SDS011;54193;53.746;10.058;2022-11-25T15:21:10;27.97;;;10.40;;
67278;SDS011;54193;53.746;10.058;2022-11-25T15:23:59;30.40;;;11.00;;
67278;SDS011;54193;53.746;10.058;2022-11-25T15:26:49;30.10;;;10.45;;
67278;SDS011;54193;53.746;10.058;2022-11-25T15:29:39;29.95;;;9.70;;
67278;SDS011;54193;53.746;10.058;2022-11-25T15:32:27;26.65;;;10.40;;
67278;SDS011;54193;53.746;10.058;2022-11-25T15:35:23;27.97;;;11.10;;
67278;SDS011;54193;53.746;10.058;2022-11-25T15:38:17;29.83;;;10.80;;
67278;SDS011;54193;53.746;10.058;2022-11-25T15:44:18;25.70;;;10.05;;
67278;SDS011;54193;53.746;10.058;2022-11-25T15:47:15;28.13;;;10.10;;
67278;SDS011;54193;53.746;10.058;2022-11-25T15:52:52;27.33;;;10.52;;
67278;SDS011;54193;53.746;10.058;2022-11-25T15:55:41;29.23;;;10.35;;
67278;SDS011;54193;53.746;10.058;2022-11-25T15:58:26;28.50;;;10.60;;
67278;SDS011;54193;53.746;10.058;2022-11-25T16:04:08;32.40;;;11.73;;
67278;SDS011;54193;53.746;10.058;2022-11-25T16:07:00;36.75;;;12.98;;
67278;SDS011;54193;53.746;10.058;2022-11-25T16:09:49;35.57;;;12.37;;
67278;SDS011;54193;53.746;10.058;2022-11-25T16:12:36;33.55;;;13.18;;
67278;SDS011;54193;53.746;10.058;2022-11-25T16:15:21;38.63;;;13.85;;
67278;SDS011;54193;53.746;10.058;2022-11-25T16:21:25;34.88;;;13.02;;
67278;SDS011;54193;53.746;10.058;2022-11-25T16:27:12;35.45;;;13.32;;
67278;SDS011;54193;53.746;10.058;2022-11-25T16:30:08;37.42;;;13.70;;
67278;SDS011;54193;53.746;10.058;2022-11-25T16:33:07;38.30;;;13.77;;
67278;SDS011;54193;53.746;10.058;2022-11-25T16:35:54;32.00;;;12.70;;
67278;SDS011;54193;53.746;10.058;2022-11-25T16:38:39;32.58;;;12.57;;
67278;SDS011;54193;53.746;10.058;2022-11-25T16:41:25;32.90;;;12.80;;
67278;SDS011;54193;53.746;10.058;2022-11-25T16:44:15;32.42;;;12.95;;
67278;SDS011;54193;53.746;10.058;2022-11-25T16:47:02;35.17;;;13.75;;
67278;SDS011;54193;53.746;10.058;2022-11-25T16:49:48;36.80;;;13.10;;
67278;SDS011;54193;53.746;10.058;2022-11-25T16:52:34;34.50;;;13.27;;
67278;SDS011;54193;53.746;10.058;2022-11-25T16:55:19;32.78;;;14.15;;
67278;SDS011;54193;53.746;10.058;2022-11-25T16:58:07;32.80;;;13.50;;
67278;SDS011;54193;53.746;10.058;2022-11-25T17:00:59;31.65;;;12.90;;
67278;SDS011;54193;53.746;10.058;2022-11-25T17:03:44;32.65;;;12.95;;
67278;SDS011;54193;53.746;10.058;2022-11-25T17:06:30;33.65;;;13.02;;
67278;SDS011;54193;53.746;10.058;2022-11-25T17:09:16;34.88;;;13.00;;
67278;SDS011;54193;53.746;10.058;2022-11-25T17:12:01;31.52;;;12.57;;
67278;SDS011;54193;53.746;10.058;2022-11-25T17:14:47;47.85;;;16.17;;
67278;SDS011;54193;53.746;10.058;2022-11-25T17:17:33;32.35;;;13.43;;
67278;SDS011;54193;53.746;10.058;2022-11-25T17:20:20;38.70;;;12.50;;
67278;SDS011;54193;53.746;10.058;2022-11-25T17:23:09;28.00;;;12.70;;
67278;SDS011;54193;53.746;10.058;2022-11-25T17:25:56;37.85;;;15.18;;
67278;SDS011;54193;53.746;10.058;2022-11-25T17:28:42;42.78;;;17.48;;
67278;SDS011;54193;53.746;10.058;2022-11-25T17:31:31;68.78;;;25.35;;
67278;SDS011;54193;53.746;10.058;2022-11-25T17:34:17;83.75;;;28.52;;
67278;SDS011;54193;53.746;10.058;2022-11-25T17:37:16;69.22;;;23.98;;
67278;SDS011;54193;53.746;10.058;2022-11-25T17:40:04;62.50;;;22.05;;
67278;SDS011;54193;53.746;10.058;2022-11-25T17:42:50;58.67;;;20.63;;
67278;SDS011;54193;53.746;10.058;2022-11-25T17:45:36;53.03;;;18.90;;
67278;SDS011;54193;53.746;10.058;2022-11-25T17:48:22;41.50;;;16.92;;
67278;SDS011;54193;53.746;10.058;2022-11-25T17:51:12;40.97;;;15.65;;
67278;SDS011;54193;53.746;10.058;2022-11-25T17:53:58;41.60;;;16.35;;
67278;SDS011;54193;53.746;10.058;2022-11-25T17:56:44;39.60;;;16.45;;
67278;SDS011;54193;53.746;10.058;2022-11-25T17:59:30;33.63;;;14.55;;
67278;SDS011;54193;53.746;10.058;2022-11-25T18:02:20;31.42;;;13.23;;
67278;SDS011;54193;53.746;10.058;2022-11-25T18:05:11;34.92;;;13.48;;
67278;SDS011;54193;53.746;10.058;2022-11-25T18:07:59;38.40;;;16.10;;
67278;SDS011;54193;53.746;10.058;2022-11-25T18:10:45;41.10;;;19.52;;
67278;SDS011;54193;53.746;10.058;2022-11-25T18:13:34;43.67;;;17.45;;